Airport ID:KSMD
Update Time (UTC):21/05/2022 13:03
Wind Speed (Knots):2
Wind Direction (Magnetic):20
Temperature (°C):17.4
Dew Point (°C):17.4
Humidity (%):100
Altimeter (inHg):29.9
Density Altitude (Feet):
Visibility (Miles):10
Clouds (Hundreds of feet):FEW034 FEW075 FEW090
Present Weather:
METAR:METAR KSMD 211300Z AUTO 00000KT 10SM FEW031 FEW037 FEW080 17/17 A2991 RMK A01

The data displayed is for advisory purposes only and is not to be used for flight planning or operations.